Time;durP1;ratioP1;P1;durP2;ratioP2;P2;SDS_P1;SDS_P2;PMS_P1;PMS_P2;Temp;Humidity;BMP_temperature;BMP_pressure;BME280_temperature;BME280_humidity;BME280_pressure;Samples;Min_cycle;Max_cycle;Signal;HPM_P1;HPM_P2
2023/06/10 00:04:09;;;;;;;11.20;10.10;;;;;;;18.17;71.40;99688.61;218032;1257;140743;-74
2023/06/10 00:09:14;;;;;;;11.00;9.90;;;;;;;18.18;71.37;99699.39;218242;1256;140602;-73
2023/06/10 00:14:19;;;;;;;15.00;10.50;;;;;;;18.20;71.57;99699.91;218814;1256;141309;-72
2023/06/10 00:19:25;;;;;;;11.60;10.30;;;;;;;18.21;71.34;99700.66;219151;1256;140309;-72
2023/06/10 00:24:29;;;;;;;;;;;;;;;18.17;71.42;99705.17;218186;1257;141026;-70
2023/06/10 00:29:32;;;;;;;11.90;9.80;;;;;;;18.14;71.56;99707.37;218528;1257;127187;-74
2023/06/10 00:34:36;;;;;;;12.40;10.80;;;;;;;18.13;71.46;99704.14;217876;1259;140897;-73
2023/06/10 00:39:40;;;;;;;12.20;11.00;;;;;;;18.14;71.45;99708.87;218051;1256;140331;-72
2023/06/10 00:44:42;;;;;;;13.60;11.90;;;;;;;18.15;71.46;99700.55;218157;1259;140766;-69
2023/06/10 00:49:47;;;;;;;14.40;12.70;;;;;;;18.18;71.42;99703.02;218314;1257;140859;-69
2023/06/10 00:54:51;;;;;;;13.10;11.90;;;;;;;18.19;71.64;99703.91;217807;1256;140685;-69
2023/06/10 00:59:54;;;;;;;12.40;11.40;;;;;;;18.20;71.64;99705.31;218408;1257;140487;-69
2023/06/10 01:04:57;;;;;;;13.30;11.80;;;;;;;18.18;71.68;99706.13;218177;1256;140669;-68
2023/06/10 01:10:17;;;;;;;17.60;13.90;;;;;;;18.15;71.60;99714.73;218565;1256;140777;-69
2023/06/10 01:15:22;;;;;;;18.10;11.90;;;;;;;18.13;71.50;99713.95;218260;1256;140166;-69
2023/06/10 01:20:29;;;;;;;15.40;13.80;;;;;;;18.03;71.31;99726.77;218739;1256;140623;-69
2023/06/10 01:25:40;;;;;;;17.10;13.00;;;;;;;18.01;71.42;99730.05;217964;1256;140366;-69
2023/06/10 01:31:33;;;;;;;16.80;15.30;;;;;;;18.02;71.23;99729.50;218579;1256;140822;-70
2023/06/10 01:36:38;;;;;;;25.60;15.20;;;;;;;18.06;70.91;99737.43;218095;1257;140793;-69
2023/06/10 01:41:40;;;;;;;13.10;12.00;;;;;;;18.08;70.79;99744.05;219462;1256;139970;-69
2023/06/10 01:46:44;;;;;;;14.90;13.40;;;;;;;18.10;70.64;99749.16;217812;1257;144044;-70
2023/06/10 01:51:48;;;;;;;16.70;13.80;;;;;;;18.09;70.53;99756.77;218730;1256;142686;-68
2023/06/10 01:56:52;;;;;;;14.20;12.80;;;;;;;18.06;70.30;99762.34;218549;1257;141194;-68
2023/06/10 02:01:56;;;;;;;15.50;13.60;;;;;;;18.02;70.54;99761.91;217882;1256;140689;-68
2023/06/10 02:07:03;;;;;;;15.40;13.80;;;;;;;17.96;70.47;99768.61;218564;1259;141356;-68
2023/06/10 02:12:10;;;;;;;15.30;13.80;;;;;;;17.90;70.76;99774.52;217931;1257;142480;-68
2023/06/10 02:17:14;;;;;;;16.80;13.50;;;;;;;17.83;70.77;99775.76;218303;1257;142344;-69
2023/06/10 02:22:17;;;;;;;14.00;12.70;;;;;;;17.76;70.73;99778.12;217855;1256;140437;-68
2023/06/10 02:27:21;;;;;;;17.80;13.10;;;;;;;17.70;70.75;99777.16;218181;1256;140771;-69
2023/06/10 02:32:25;;;;;;;14.40;12.90;;;;;;;17.62;70.77;99779.61;218807;1256;140998;-68
2023/06/10 02:37:28;;;;;;;19.60;14.20;;;;;;;17.52;70.69;99781.71;219103;1256;141054;-68
2023/06/10 02:42:32;;;;;;;14.00;12.50;;;;;;;17.44;70.68;99783.80;218287;1256;139763;-71
2023/06/10 02:47:39;;;;;;;15.50;13.60;;;;;;;17.38;70.83;99781.91;217728;1257;140604;-73
2023/06/10 02:52:45;;;;;;;;;;;;;;;17.33;70.99;99791.74;218067;1256;141116;-72
2023/06/10 02:57:49;;;;;;;15.70;13.60;;;;;;;17.29;71.15;99792.52;218227;1259;127167;-72
2023/06/10 03:02:57;;;;;;;16.50;13.10;;;;;;;17.28;71.20;99797.81;218580;1257;140278;-71
2023/06/10 03:08:03;;;;;;;13.00;11.80;;;;;;;17.27;71.35;99799.73;218141;1255;142024;-72
2023/06/10 03:13:06;;;;;;;15.10;13.70;;;;;;;17.26;71.29;99801.47;217758;1257;140994;-74
2023/06/10 03:18:09;;;;;;;13.50;12.30;;;;;;;17.24;71.26;99803.85;218509;1257;140049;-70
2023/06/10 03:23:12;;;;;;;15.10;12.00;;;;;;;17.24;71.35;99802.89;218084;1257;141068;-71
2023/06/10 03:28:15;;;;;;;18.40;13.10;;;;;;;17.26;71.29;99802.13;218093;1257;140387;-69
2023/06/10 03:33:17;;;;;;;16.10;12.60;;;;;;;17.28;71.33;99804.05;217966;1257;140523;-70
2023/06/10 03:38:19;;;;;;;14.20;12.60;;;;;;;17.32;71.25;99805.60;219505;1256;141134;-70
2023/06/10 03:43:21;;;;;;;21.90;11.20;;;;;;;17.57;70.93;99803.73;219041;1257;140367;-71
2023/06/10 03:48:24;;;;;;;15.40;11.40;;;;;;;17.81;70.26;99806.30;220492;1256;141579;-74
2023/06/10 03:53:27;;;;;;;12.30;10.70;;;;;;;18.10;69.53;99809.91;217905;1257;140151;-70
2023/06/10 03:58:31;;;;;;;11.70;10.40;;;;;;;18.47;68.41;99811.16;218579;1257;140999;-68
2023/06/10 04:03:34;;;;;;;11.30;9.50;;;;;;;18.69;67.40;99816.89;220055;1256;141282;-68
2023/06/10 04:08:37;;;;;;;8.90;8.00;;;;;;;18.78;66.36;99819.29;218574;1256;139504;-69
2023/06/10 04:13:41;;;;;;;8.10;7.30;;;;;;;18.88;65.15;99817.17;218406;1257;140078;-71
2023/06/10 04:18:43;;;;;;;8.50;6.70;;;;;;;19.18;64.02;99822.82;218389;1260;141098;-70
2023/06/10 04:23:48;;;;;;;7.30;6.70;;;;;;;20.03;62.37;99827.55;218418;1257;140231;-69
2023/06/10 04:28:52;;;;;;;12.60;6.50;;;;;;;20.67;61.29;99823.86;218690;1257;140664;-70
2023/06/10 04:33:55;;;;;;;8.20;7.20;;;;;;;21.43;59.87;99826.37;219115;1256;140048;-69
2023/06/10 04:38:58;;;;;;;9.20;7.90;;;;;;;22.56;57.71;99826.79;218685;1257;139101;-69
2023/06/10 04:44:01;;;;;;;8.30;7.20;;;;;;;24.39;55.31;99821.29;217738;1257;140313;-69
2023/06/10 04:49:05;;;;;;;8.10;7.30;;;;;;;25.42;52.94;99828.87;217836;1256;140885;-69
2023/06/10 04:54:09;;;;;;;8.90;6.70;;;;;;;26.29;50.94;99828.88;218225;1257;139205;-68
2023/06/10 04:59:14;;;;;;;11.70;7.80;;;;;;;26.42;49.62;99835.02;217877;1257;140000;-69
2023/06/10 05:04:19;;;;;;;14.20;6.50;;;;;;;27.13;47.99;99842.02;218344;1257;140457;-69
2023/06/10 05:09:23;;;;;;;10.10;6.60;;;;;;;28.20;45.90;99840.55;218041;1256;139288;-68
2023/06/10 05:14:27;;;;;;;6.70;6.00;;;;;;;30.96;42.96;99844.02;217812;1257;140221;-68
2023/06/10 05:19:31;;;;;;;6.80;4.80;;;;;;;33.37;39.66;99849.71;218790;1257;139919;-69
2023/06/10 05:24:35;;;;;;;6.40;4.20;;;;;;;35.33;37.20;99856.89;218130;1256;140550;-69
2023/06/10 05:29:39;;;;;;;4.50;4.10;;;;;;;37.27;34.67;99858.58;218506;1259;139433;-71
2023/06/10 05:34:42;;;;;;;;;;;;;;;38.50;32.33;99867.86;217842;1257;139110;-71
2023/06/10 05:39:45;;;;;;;2.80;2.60;;;;;;;39.40;30.63;99872.70;218564;1257;125629;-70
2023/06/10 05:44:49;;;;;;;5.30;4.00;;;;;;;39.61;28.55;99877.27;218345;1257;139339;-69
2023/06/10 05:49:52;;;;;;;5.00;3.80;;;;;;;39.85;27.64;99878.16;218593;1259;139365;-67
2023/06/10 05:54:56;;;;;;;6.50;4.10;;;;;;;39.98;27.16;99882.02;219445;1259;140130;-70
2023/06/10 06:00:00;;;;;;;5.60;3.60;;;;;;;40.84;25.84;99876.80;218534;1259;139354;-68
2023/06/10 06:05:05;;;;;;;6.30;4.00;;;;;;;41.78;24.81;99876.69;218654;1257;138608;-69
2023/06/10 06:10:10;;;;;;;4.40;3.70;;;;;;;42.39;23.90;99877.76;217909;1259;140220;-69
2023/06/10 06:15:16;;;;;;;6.60;2.90;;;;;;;42.87;23.15;99877.02;218139;1259;139286;-70
2023/06/10 06:20:22;;;;;;;7.50;3.60;;;;;;;43.07;22.57;99874.70;218092;1259;139796;-69
2023/06/10 06:25:26;;;;;;;4.40;2.70;;;;;;;43.40;22.03;99875.88;217736;1257;138814;-69
2023/06/10 06:30:30;;;;;;;3.80;3.50;;;;;;;43.61;21.38;99874.95;218264;1256;139202;-71
2023/06/10 06:35:34;;;;;;;5.40;3.20;;;;;;;43.30;20.79;99878.55;217745;1257;139324;-70
2023/06/10 06:40:39;;;;;;;4.90;2.90;;;;;;;43.00;20.67;99876.04;218322;1257;139801;-71
2023/06/10 06:45:41;;;;;;;4.70;4.10;;;;;;;42.87;20.78;99877.43;217289;1257;140425;-71
2023/06/10 06:50:44;;;;;;;7.90;3.00;;;;;;;42.68;20.64;99885.08;217375;1257;140228;-71
2023/06/10 06:55:48;;;;;;;6.70;3.90;;;;;;;42.51;20.64;99887.65;217728;1259;139347;-71
2023/06/10 07:01:01;;;;;;;4.70;3.30;;;;;;;42.46;20.58;99894.59;217480;1257;139115;-73
2023/06/10 07:06:05;;;;;;;6.60;4.00;;;;;;;42.16;20.58;99897.91;217900;1259;139350;-71
2023/06/10 07:11:08;;;;;;;3.50;3.20;;;;;;;41.80;20.76;99900.30;217601;1257;139363;-69
2023/06/10 07:16:35;;;;;;;8.40;5.60;;;;;;;41.81;20.56;99900.20;218072;1257;140659;-75
2023/06/10 07:21:38;;;;;;;4.10;3.70;;;;;;;41.19;20.65;99896.63;217665;1257;139424;-68
2023/06/10 07:26:40;;;;;;;4.00;3.60;;;;;;;40.34;21.35;99904.73;217872;1257;659315;-71
2023/06/10 07:31:43;;;;;;;5.60;4.40;;;;;;;39.60;21.92;99905.71;218293;1257;139788;-75
2023/06/10 07:36:47;;;;;;;7.10;3.90;;;;;;;38.66;22.22;99907.91;218548;1260;139716;-71
2023/06/10 07:41:53;;;;;;;4.60;4.20;;;;;;;37.46;22.98;99908.31;218063;1256;139657;-72
2023/06/10 07:46:57;;;;;;;5.30;4.30;;;;;;;36.58;23.83;99912.16;218452;1257;139375;-67
2023/06/10 07:52:02;;;;;;;4.20;3.80;;;;;;;35.79;24.65;99912.70;219829;1256;140462;-69
2023/06/10 07:57:07;;;;;;;5.20;4.80;;;;;;;35.00;25.46;99910.24;218931;1256;139500;-69
2023/06/10 08:02:10;;;;;;;5.60;4.90;;;;;;;34.51;26.20;99913.88;218523;1260;140971;-69
2023/06/10 08:07:14;;;;;;;6.00;5.40;;;;;;;34.10;26.71;99912.45;217742;1257;139383;-69
2023/06/10 08:12:20;;;;;;;10.70;5.60;;;;;;;33.82;27.33;99916.96;218378;1257;139526;-75
2023/06/10 08:17:24;;;;;;;18.00;5.10;;;;;;;33.57;27.97;99911.36;218194;1260;139005;-74
2023/06/10 08:22:29;;;;;;;7.40;6.10;;;;;;;33.30;28.03;99914.30;218711;1260;140703;-70
2023/06/10 08:27:33;;;;;;;5.80;5.30;;;;;;;33.12;28.18;99907.20;217801;1259;139154;-70
2023/06/10 08:32:40;;;;;;;8.00;5.30;;;;;;;32.99;28.44;99915.38;217802;1257;139040;-70
2023/06/10 08:37:44;;;;;;;7.50;5.20;;;;;;;32.74;28.55;99915.14;219560;1257;139437;-71
2023/06/10 08:43:07;;;;;;;7.50;4.80;;;;;;;32.37;28.49;99922.91;218030;1257;138956;-70
2023/06/10 08:48:14;;;;;;;;;;;;;;;31.84;28.51;99921.10;218547;1260;139582;-70
2023/06/10 08:53:23;;;;;;;6.80;5.40;;;;;;;31.52;29.00;99923.86;218661;1260;126273;-71
2023/06/10 08:58:28;;;;;;;9.50;4.30;;;;;;;31.65;29.46;99922.49;218622;1257;140129;-70
2023/06/10 09:03:33;;;;;;;7.30;5.00;;;;;;;31.71;29.52;99922.05;218688;1259;139586;-71
2023/06/10 09:08:38;;;;;;;9.10;6.00;;;;;;;31.86;29.98;99922.72;217954;1257;139272;-71
2023/06/10 09:13:43;;;;;;;7.70;4.90;;;;;;;31.77;29.29;99924.80;218101;1259;139488;-71
2023/06/10 09:18:48;;;;;;;9.90;5.20;;;;;;;31.53;28.89;99920.80;219002;1257;139668;-71
2023/06/10 09:23:52;;;;;;;16.80;5.40;;;;;;;31.26;28.51;99916.75;220327;1258;138675;-71
2023/06/10 09:29:11;;;;;;;5.70;4.90;;;;;;;31.26;28.04;99915.66;220628;1258;139270;-73
2023/06/10 09:34:22;;;;;;;20.80;4.10;;;;;;;31.28;27.44;99915.92;220169;1256;139923;-72
2023/06/10 09:39:31;;;;;;;7.00;4.50;;;;;;;31.05;26.64;99914.36;220354;1257;139578;-72
2023/06/10 09:44:35;;;;;;;5.30;4.00;;;;;;;30.90;26.57;99918.66;220203;1260;140920;-74
2023/06/10 09:49:38;;;;;;;5.20;4.60;;;;;;;30.77;26.46;99923.55;218532;1262;139300;-73
2023/06/10 09:54:45;;;;;;;4.70;3.70;;;;;;;30.85;26.77;99916.68;218439;1257;140018;-70
2023/06/10 09:59:54;;;;;;;5.70;4.40;;;;;;;30.73;26.34;99916.86;217794;1257;139602;-70
2023/06/10 10:05:04;;;;;;;7.50;4.20;;;;;;;30.80;26.16;99911.57;218669;1257;140146;-70
2023/06/10 10:10:10;;;;;;;4.00;3.70;;;;;;;30.75;25.92;99903.38;218953;1258;141058;-73
2023/06/10 10:15:18;;;;;;;4.00;3.20;;;;;;;30.74;25.30;99911.54;217914;1258;139858;-75
2023/06/10 10:20:29;;;;;;;6.10;4.00;;;;;;;30.71;24.99;99907.08;218583;1258;139417;-71
2023/06/10 10:25:36;;;;;;;18.60;3.80;;;;;;;30.72;24.23;99907.09;218089;1257;139445;-71
2023/06/10 10:30:52;;;;;;;4.30;3.40;;;;;;;30.52;23.47;99904.27;218512;1257;139453;-71
2023/06/10 10:35:58;;;;;;;3.30;3.00;;;;;;;30.13;23.14;99917.71;217724;1258;138677;-70
2023/06/10 10:41:04;;;;;;;5.20;4.00;;;;;;;30.11;23.41;99909.81;218075;1257;139958;-71
2023/06/10 10:46:18;;;;;;;3.60;3.30;;;;;;;30.26;23.70;99900.84;217818;1257;139267;-70
2023/06/10 10:51:24;;;;;;;3.60;3.30;;;;;;;30.26;23.29;99910.74;218063;1260;140632;-72
2023/06/10 10:56:30;;;;;;;3.40;2.90;;;;;;;30.01;22.87;99909.27;217723;1260;140386;-71
2023/06/10 11:01:46;;;;;;;5.40;3.50;;;;;;;29.79;23.16;99904.48;217916;1257;138933;-72
2023/06/10 11:06:54;;;;;;;;;;;;;;;29.57;23.03;99905.07;217893;1261;141438;-71
2023/06/10 11:12:00;;;;;;;6.00;3.60;;;;;;;29.57;23.20;99891.34;218297;1257;125384;-70
2023/06/10 11:17:19;;;;;;;5.10;3.00;;;;;;;29.52;23.19;99900.26;218598;1257;139750;-71
2023/06/10 11:22:23;;;;;;;4.30;3.40;;;;;;;29.29;22.82;99898.09;217838;1260;139703;-69
2023/06/10 11:27:37;;;;;;;4.80;4.10;;;;;;;29.25;23.68;99898.02;218074;1258;139348;-69
2023/06/10 11:32:43;;;;;;;4.00;3.70;;;;;;;29.28;23.29;99896.14;219325;1257;139654;-71
2023/06/10 11:37:47;;;;;;;5.90;3.90;;;;;;;29.27;23.39;99891.08;220128;1257;139951;-70
2023/06/10 11:42:50;;;;;;;7.00;3.90;;;;;;;29.43;23.93;99888.89;220413;1258;138825;-70
2023/06/10 11:48:00;;;;;;;5.80;4.40;;;;;;;29.63;23.89;99884.98;220396;1257;140546;-71
2023/06/10 11:53:04;;;;;;;4.50;3.60;;;;;;;29.47;24.09;99877.36;220246;1257;140061;-71
2023/06/10 11:58:15;;;;;;;9.50;4.20;;;;;;;29.40;24.28;99874.77;220496;1257;139659;-75
2023/06/10 12:03:18;;;;;;;4.20;3.80;;;;;;;29.31;24.35;99876.75;218621;1258;140049;-71
2023/06/10 12:08:21;;;;;;;7.20;4.10;;;;;;;29.15;24.16;99872.61;218192;1257;140250;-70
2023/06/10 12:13:28;;;;;;;4.20;3.90;;;;;;;29.20;24.61;99861.88;219634;1257;139220;-71
2023/06/10 12:18:31;;;;;;;5.60;3.70;;;;;;;29.22;24.10;99869.93;217838;1258;139193;-72
2023/06/10 12:23:35;;;;;;;4.20;3.60;;;;;;;29.01;23.72;99872.71;218557;1257;139244;-70
2023/06/10 12:28:38;;;;;;;5.50;4.20;;;;;;;28.88;24.47;99866.52;218180;1257;139570;-70
2023/06/10 12:33:45;;;;;;;7.70;4.40;;;;;;;28.95;24.47;99869.77;218517;1257;140015;-71
2023/06/10 12:38:53;;;;;;;5.60;5.00;;;;;;;28.80;23.99;99873.05;218430;1260;138582;-69
2023/06/10 12:44:05;;;;;;;3.30;3.00;;;;;;;28.72;24.34;99868.54;218101;1257;139026;-72
2023/06/10 12:49:22;;;;;;;4.80;4.10;;;;;;;28.66;24.19;99873.08;217841;1260;139910;-66
2023/06/10 12:54:30;;;;;;;6.60;3.80;;;;;;;28.51;24.10;99875.87;218156;1257;139616;-68
2023/06/10 12:59:50;;;;;;;12.70;3.60;;;;;;;28.26;24.22;99869.40;217965;1257;230643;-68
2023/06/10 13:04:58;;;;;;;6.80;3.30;;;;;;;28.08;24.70;99863.65;218414;1257;139322;-67
2023/06/10 13:10:08;;;;;;;7.80;3.60;;;;;;;28.16;24.72;99864.88;218289;1257;139573;-70
2023/06/10 13:15:16;;;;;;;3.90;3.40;;;;;;;28.17;24.93;99859.58;219694;1257;138915;-69
2023/06/10 13:20:21;;;;;;;3.80;3.50;;;;;;;28.05;24.89;99859.39;218739;1255;140200;-68
2023/06/10 13:25:25;;;;;;;3.30;3.10;;;;;;;28.03;24.73;99855.73;219615;1257;139215;-68
2023/06/10 13:30:35;;;;;;;3.20;3.00;;;;;;;27.99;24.97;99856.00;219058;1259;138910;-65
2023/06/10 13:35:42;;;;;;;4.60;3.60;;;;;;;28.05;24.61;99853.77;219632;1256;141343;-66
2023/06/10 13:40:44;;;;;;;4.80;2.90;;;;;;;28.04;24.60;99852.70;218634;1257;139931;-72
2023/06/10 13:45:47;;;;;;;5.00;3.40;;;;;;;27.96;24.76;99852.02;219594;1260;141474;-69
2023/06/10 13:50:49;;;;;;;6.90;3.50;;;;;;;27.87;24.77;99845.09;219580;1256;139721;-70
2023/06/10 13:55:51;;;;;;;5.90;3.40;;;;;;;27.74;24.04;99846.29;219106;1256;139435;-78
2023/06/10 14:00:53;;;;;;;7.70;3.30;;;;;;;27.58;24.38;99850.41;218039;1257;140512;-69
2023/06/10 14:05:55;;;;;;;6.80;3.40;;;;;;;27.56;24.32;99848.23;217818;1259;140276;-72
2023/06/10 14:10:59;;;;;;;4.10;3.20;;;;;;;27.58;23.93;99851.23;217676;1257;139007;-67
2023/06/10 14:16:03;;;;;;;4.20;3.50;;;;;;;27.57;23.69;99846.21;217921;1260;139924;-71
2023/06/10 14:21:09;;;;;;;3.60;3.10;;;;;;;27.53;23.13;99848.21;217963;1257;140211;-76
2023/06/10 14:26:12;;;;;;;3.60;3.00;;;;;;;27.51;22.74;99844.62;217871;1257;139011;-73
2023/06/10 14:31:16;;;;;;;3.60;3.00;;;;;;;27.45;22.70;99841.41;217954;1260;139717;-69
2023/06/10 14:36:19;;;;;;;2.90;2.70;;;;;;;27.36;22.52;99839.39;218497;1257;140306;-70
2023/06/10 14:41:22;;;;;;;8.30;3.70;;;;;;;27.29;22.70;99843.87;217626;1257;139016;-70
2023/06/10 14:46:24;;;;;;;3.40;2.70;;;;;;;27.29;22.52;99838.95;217706;1256;139780;-67
2023/06/10 14:51:27;;;;;;;5.60;3.40;;;;;;;27.22;22.82;99842.23;217597;1257;139636;-70
2023/06/10 14:56:31;;;;;;;7.20;3.50;;;;;;;27.21;22.88;99841.80;218194;1260;139316;-70
2023/06/10 15:01:34;;;;;;;4.70;3.40;;;;;;;27.23;22.80;99833.90;218819;1256;161690;-68
2023/06/10 15:06:38;;;;;;;3.70;3.40;;;;;;;27.22;23.00;99833.38;217739;1256;139061;-68
2023/06/10 15:11:41;;;;;;;3.10;2.80;;;;;;;27.23;23.09;99838.60;217740;1260;139766;-66
2023/06/10 15:16:44;;;;;;;4.00;3.10;;;;;;;27.16;22.77;99832.77;218525;1257;139535;-71
2023/06/10 15:21:48;;;;;;;11.60;3.50;;;;;;;27.14;23.07;99832.95;217660;1258;138835;-68
2023/06/10 15:26:51;;;;;;;3.20;3.00;;;;;;;27.05;23.12;99835.27;219197;1256;221798;-69
2023/06/10 15:31:54;;;;;;;4.10;3.00;;;;;;;26.97;23.46;99833.99;218557;1256;140163;-65
2023/06/10 15:36:56;;;;;;;4.90;4.50;;;;;;;26.92;23.65;99831.16;219573;1256;139756;-72
2023/06/10 15:42:00;;;;;;;7.10;3.60;;;;;;;26.85;23.83;99828.69;220304;1256;139896;-69
2023/06/10 15:47:03;;;;;;;5.00;4.20;;;;;;;26.80;24.37;99831.48;218288;1259;138893;-66
2023/06/10 15:52:06;;;;;;;6.70;3.90;;;;;;;26.69;24.61;99829.87;219590;1256;139971;-66
2023/06/10 15:57:13;;;;;;;8.50;4.40;;;;;;;26.58;24.92;99836.37;217919;1257;139101;-67
2023/06/10 16:02:16;;;;;;;4.30;3.60;;;;;;;26.46;25.01;99842.61;218390;1257;139927;-67
2023/06/10 16:07:22;;;;;;;3.60;3.30;;;;;;;26.30;25.20;99841.41;218500;1256;139999;-70
2023/06/10 16:12:29;;;;;;;7.80;4.20;;;;;;;26.22;25.54;99847.20;218180;1256;138577;-71
2023/06/10 16:17:32;;;;;;;4.30;3.80;;;;;;;26.09;25.77;99846.32;218366;1257;139999;-69
2023/06/10 16:22:36;;;;;;;5.00;4.00;;;;;;;26.00;26.35;99844.98;218086;1256;139831;-68
2023/06/10 16:27:39;;;;;;;4.30;3.60;;;;;;;25.95;26.67;99850.28;217911;1256;139153;-74
2023/06/10 16:32:44;;;;;;;5.10;4.10;;;;;;;25.91;26.92;99854.03;217732;1257;140502;-72
2023/06/10 16:37:54;;;;;;;3.70;3.40;;;;;;;25.88;27.10;99852.96;218182;1256;139094;-72
2023/06/10 16:43:00;;;;;;;7.40;3.90;;;;;;;25.78;27.28;99850.02;219045;1256;138570;-71
2023/06/10 16:48:06;;;;;;;4.80;4.00;;;;;;;25.67;27.56;99847.59;218009;1256;139803;-70
2023/06/10 16:53:09;;;;;;;11.30;4.70;;;;;;;25.58;27.99;99851.33;217860;1260;139289;-75
2023/06/10 16:58:12;;;;;;;4.60;4.20;;;;;;;25.54;28.23;99853.83;218296;1256;140112;-69
2023/06/10 17:03:15;;;;;;;6.60;4.70;;;;;;;25.42;28.36;99859.70;218136;1256;139434;-66
2023/06/10 17:08:19;;;;;;;5.70;4.70;;;;;;;25.32;28.49;99864.92;218554;1256;139869;-70
2023/06/10 17:13:33;;;;;;;12.80;5.00;;;;;;;25.16;28.81;99872.14;219917;1256;138915;-69
2023/06/10 17:18:38;;;;;;;6.70;4.80;;;;;;;25.04;29.08;99872.28;220350;1256;141027;-70
2023/06/10 17:23:44;;;;;;;13.40;4.50;;;;;;;24.94;29.25;99875.66;218543;1257;139399;-69
2023/06/10 17:28:47;;;;;;;4.40;4.00;;;;;;;24.82;29.41;99875.17;218634;1259;140317;-69
2023/06/10 17:33:52;;;;;;;5.30;4.20;;;;;;;24.71;29.78;99880.41;217889;1258;139747;-65
2023/06/10 17:38:56;;;;;;;5.90;4.30;;;;;;;24.58;29.75;99890.83;218734;1256;140574;-70
2023/06/10 17:44:00;;;;;;;6.90;4.40;;;;;;;24.46;30.25;99894.77;218425;1257;153984;-69
2023/06/10 17:49:09;;;;;;;6.90;4.40;;;;;;;24.33;30.25;99897.98;217937;1257;139587;-67
2023/06/10 17:54:27;;;;;;;10.50;5.10;;;;;;;24.21;30.51;99903.48;218240;1256;139806;-65
2023/06/10 17:59:43;;;;;;;5.40;4.90;;;;;;;24.09;30.93;99911.91;217672;1256;140004;-67
2023/06/10 18:04:54;;;;;;;5.30;4.20;;;;;;;23.95;31.17;99910.45;218583;1256;138846;-69
2023/06/10 18:10:14;;;;;;;9.70;5.60;;;;;;;23.82;31.56;99910.02;217464;1256;139084;-69
2023/06/10 18:15:35;;;;;;;4.80;4.30;;;;;;;23.68;31.66;99923.10;218321;1256;139799;-70
2023/06/10 18:20:45;;;;;;;5.10;4.30;;;;;;;23.56;31.96;99925.14;217888;1256;139423;-69
2023/06/10 18:25:50;;;;;;;5.30;4.60;;;;;;;23.42;32.14;99931.45;218182;1256;139289;-72
2023/06/10 18:30:58;;;;;;;5.70;4.50;;;;;;;23.28;32.60;99939.73;217786;1257;139613;-74
2023/06/10 18:36:14;;;;;;;4.50;4.20;;;;;;;23.11;32.69;99945.95;217495;1255;140270;-71
2023/06/10 18:41:27;;;;;;;8.20;4.50;;;;;;;22.97;32.97;99951.59;217576;1259;139063;-77
2023/06/10 18:46:46;;;;;;;8.00;4.80;;;;;;;22.82;33.47;99963.34;217671;1257;138928;-73
2023/06/10 18:51:56;;;;;;;5.70;5.10;;;;;;;22.62;34.46;99972.19;218298;1257;139538;-73
2023/06/10 18:57:05;;;;;;;9.40;4.90;;;;;;;22.35;35.28;99986.39;217766;1257;139221;-69
2023/06/10 19:02:12;;;;;;;7.20;5.00;;;;;;;22.15;35.95;99989.62;218498;1256;139659;-66
2023/06/10 19:07:16;;;;;;;4.50;4.10;;;;;;;21.99;36.55;99998.46;219232;1256;139689;-66
2023/06/10 19:12:24;;;;;;;21.50;6.50;;;;;;;21.82;37.48;100005.27;217617;1256;139428;-65
2023/06/10 19:17:27;;;;;;;6.50;5.40;;;;;;;21.65;38.33;100013.68;218515;1257;140236;-68
2023/06/10 19:22:34;;;;;;;12.30;5.10;;;;;;;21.47;39.15;100018.16;217377;1256;1028203;-65
2023/06/10 19:27:39;;;;;;;14.60;5.60;;;;;;;21.27;39.65;100018.80;220192;1256;140277;-65
2023/06/10 19:32:43;;;;;;;10.80;5.60;;;;;;;21.07;40.20;100023.78;219424;1256;139188;-65
2023/06/10 19:38:00;;;;;;;15.80;6.00;;;;;;;20.93;40.69;100026.23;220045;1257;141267;-65
2023/06/10 19:43:24;;;;;;;12.30;6.20;;;;;;;20.80;41.03;100030.95;218153;1257;248387;-69
2023/06/10 19:48:36;;;;;;;9.10;6.40;;;;;;;20.69;41.80;100033.34;218135;1257;141813;-72
2023/06/10 19:53:47;;;;;;;8.70;5.50;;;;;;;20.58;42.44;100036.04;219128;1256;139939;-66
2023/06/10 19:58:58;;;;;;;8.40;5.80;;;;;;;20.47;42.83;100040.27;217874;1259;140329;-70
2023/06/10 20:04:02;;;;;;;13.20;6.80;;;;;;;20.36;43.35;100048.16;218370;1259;139681;-68
2023/06/10 20:09:10;;;;;;;8.80;6.10;;;;;;;20.19;43.68;100051.73;218314;1259;139571;-74
2023/06/10 20:14:14;;;;;;;8.80;5.60;;;;;;;20.00;44.15;100045.30;217606;1257;140917;-80
2023/06/10 20:19:16;;;;;;;12.40;7.60;;;;;;;19.89;45.26;100045.49;218494;1256;139201;-76
2023/06/10 20:24:20;;;;;;;9.40;6.70;;;;;;;19.80;46.14;100053.71;218754;1258;139533;-78
2023/06/10 20:29:26;;;;;;;14.90;5.60;;;;;;;19.71;47.01;100056.46;218307;1257;138937;-70
2023/06/10 20:34:30;;;;;;;10.80;6.80;;;;;;;19.61;47.44;100061.86;217699;1257;139940;-67
2023/06/10 20:39:32;;;;;;;14.80;8.40;;;;;;;19.50;48.21;100065.27;218532;1257;139985;-71
2023/06/10 20:44:40;;;;;;;16.00;8.20;;;;;;;19.37;48.87;100068.95;217546;1259;139833;-73
2023/06/10 20:49:44;;;;;;;11.10;7.80;;;;;;;19.21;49.68;100077.52;217930;1259;139362;-73
2023/06/10 20:54:49;;;;;;;7.70;6.90;;;;;;;19.05;50.11;100082.45;218411;1256;139371;-72
2023/06/10 20:59:54;;;;;;;12.50;7.50;;;;;;;18.87;50.94;100091.67;217755;1257;139375;-73
2023/06/10 21:04:59;;;;;;;14.00;9.20;;;;;;;18.75;51.80;100092.44;217642;1257;141210;-69
2023/06/10 21:10:03;;;;;;;10.00;8.20;;;;;;;18.67;52.73;100093.30;218616;1256;140099;-69
2023/06/10 21:15:15;;;;;;;9.20;8.20;;;;;;;18.67;53.25;100093.56;220041;1257;140566;-75
2023/06/10 21:20:22;;;;;;;13.60;7.90;;;;;;;18.69;53.50;100096.04;217792;1256;139572;-70
2023/06/10 21:25:30;;;;;;;7.10;6.60;;;;;;;18.68;53.77;100102.70;219670;1256;140649;-73
2023/06/10 21:30:33;;;;;;;7.80;6.60;;;;;;;18.63;54.06;100104.35;218769;1257;140243;-75
2023/06/10 21:35:38;;;;;;;7.50;6.90;;;;;;;18.62;54.43;100105.40;220167;1255;140577;-75
2023/06/10 21:40:52;;;;;;;7.40;6.30;;;;;;;18.61;54.61;100105.17;218168;1257;139918;-72
2023/06/10 21:45:57;;;;;;;7.80;7.10;;;;;;;18.57;54.88;100111.42;220289;1257;140131;-72
2023/06/10 21:51:03;;;;;;;6.70;6.10;;;;;;;18.49;55.07;100111.30;217806;1257;140531;-72
2023/06/10 21:56:07;;;;;;;7.10;6.50;;;;;;;18.39;55.26;100112.59;218104;1257;140203;-76
2023/06/10 22:01:12;;;;;;;8.30;6.90;;;;;;;18.26;55.73;100117.29;218348;1256;140325;-73
2023/06/10 22:06:17;;;;;;;7.50;6.70;;;;;;;18.15;55.91;100120.29;218201;1257;140247;-71
2023/06/10 22:11:25;;;;;;;8.20;6.00;;;;;;;18.03;56.22;100116.02;218760;1255;139386;-81
2023/06/10 22:16:29;;;;;;;9.50;7.30;;;;;;;17.90;56.59;100114.11;217848;1257;140968;-81
2023/06/10 22:21:34;;;;;;;7.30;6.70;;;;;;;17.77;56.81;100114.19;218147;1257;141364;-76
2023/06/10 22:26:42;;;;;;;7.30;6.60;;;;;;;17.65;57.19;100116.90;218157;1256;141491;-80
2023/06/10 22:32:05;;;;;;;9.70;7.30;;;;;;;17.51;57.52;100125.63;218539;1257;140712;-74
2023/06/10 22:37:10;;;;;;;11.60;7.90;;;;;;;17.37;57.83;100127.16;218088;1257;139826;-74
2023/06/10 22:42:13;;;;;;;7.40;6.70;;;;;;;17.29;58.20;100122.73;217822;1256;140281;-73
2023/06/10 22:47:17;;;;;;;8.80;6.50;;;;;;;17.19;58.43;100125.09;217995;1259;140606;-74
2023/06/10 22:52:22;;;;;;;10.30;6.20;;;;;;;17.07;58.72;100122.67;217998;1257;139938;-73
2023/06/10 22:57:25;;;;;;;7.00;6.40;;;;;;;17.00;59.19;100119.75;217973;1257;141073;-72
2023/06/10 23:02:30;;;;;;;7.90;7.30;;;;;;;16.94;59.36;100118.98;218097;1257;140959;-72
2023/06/10 23:07:35;;;;;;;7.70;7.00;;;;;;;16.88;59.73;100123.11;218562;1257;140698;-70
2023/06/10 23:12:41;;;;;;;8.40;7.70;;;;;;;16.82;59.95;100117.83;218525;1256;140224;-73
2023/06/10 23:17:47;;;;;;;8.40;7.30;;;;;;;16.77;60.36;100124.83;217939;1256;140341;-73
2023/06/10 23:22:52;;;;;;;8.30;7.50;;;;;;;16.74;60.68;100123.42;218351;1256;139602;-74